Time;durP1;ratioP1;P1;durP2;ratioP2;P2;SDS_P1;SDS_P2;PMS_P1;PMS_P2;Temp;Humidity;BMP_temperature;BMP_pressure;BME280_temperature;BME280_humidity;BME280_pressure;Samples;Min_cycle;Max_cycle;Signal;HPM_P1;HPM_P2
2023/09/12 00:00:32;;;;;;;43.63;33.10;;;19.50;91.50;;;;;;5114193;28;20206;-91
2023/09/12 00:02:57;;;;;;;49.22;33.03;;;19.50;91.50;;;;;;5114530;28;20170;-90
2023/09/12 00:05:23;;;;;;;42.80;32.03;;;19.50;91.50;;;;;;5114271;28;20524;-90
2023/09/12 00:07:52;;;;;;;51.38;32.38;;;19.50;91.50;;;;;;5112616;28;20257;-90
2023/09/12 00:10:18;;;;;;;41.25;31.63;;;19.60;91.50;;;;;;5112812;28;20184;-90
2023/09/12 00:12:43;;;;;;;43.55;32.95;;;19.60;91.40;;;;;;5112752;28;20173;-90
2023/09/12 00:15:09;;;;;;;47.97;33.13;;;19.60;91.40;;;;;;5112665;28;20228;-90
2023/09/12 00:17:34;;;;;;;44.83;32.15;;;19.60;91.40;;;;;;5112559;28;20202;-90
2023/09/12 00:20:00;;;;;;;46.10;32.30;;;19.70;91.40;;;;;;5112476;28;20182;-90
2023/09/12 00:22:25;;;;;;;40.75;29.80;;;19.80;91.40;;;;;;5112489;28;20199;-89
2023/09/12 00:24:51;;;;;;;40.53;32.60;;;19.80;91.30;;;;;;5112583;28;20190;-89
2023/09/12 00:27:16;;;;;;;48.92;33.78;;;19.80;91.00;;;;;;5112540;28;20191;-90
2023/09/12 00:29:42;;;;;;;59.10;34.97;;;19.80;91.00;;;;;;5113620;28;20166;-89
2023/09/12 00:32:07;;;;;;;44.28;32.67;;;19.80;91.00;;;;;;5113555;28;20182;-90
2023/09/12 00:34:33;;;;;;;46.90;32.05;;;19.80;90.90;;;;;;5114394;28;20214;-89
2023/09/12 00:36:58;;;;;;;45.03;34.17;;;19.80;90.90;;;;;;5112709;28;20357;-89
2023/09/12 00:39:24;;;;;;;52.22;34.97;;;19.80;90.90;;;;;;5113359;28;20292;-89
2023/09/12 00:41:49;;;;;;;51.13;35.85;;;19.80;91.00;;;;;;5112729;28;20170;-89
2023/09/12 00:44:15;;;;;;;49.15;36.15;;;19.80;91.00;;;;;;5117227;28;20186;-89
2023/09/12 00:46:41;;;;;;;55.38;37.67;;;19.90;91.10;;;;;;5117188;28;20184;-89
2023/09/12 00:49:07;;;;;;;53.42;37.80;;;19.80;91.00;;;;;;5117214;28;20166;-89
2023/09/12 00:51:34;;;;;;;45.78;33.88;;;19.90;91.00;;;;;;5115914;28;20174;-89
2023/09/12 00:54:00;;;;;;;47.65;35.33;;;20.00;91.10;;;;;;5115694;28;20201;-89
2023/09/12 00:56:26;;;;;;;48.25;34.17;;;20.00;90.70;;;;;;5116821;28;20201;-89
2023/09/12 00:58:52;;;;;;;54.22;36.30;;;20.00;90.60;;;;;;5115989;28;20702;-89
2023/09/12 01:01:19;;;;;;;47.35;34.28;;;20.00;90.60;;;;;;5116895;28;20174;-89
2023/09/12 01:03:45;;;;;;;48.88;34.67;;;20.10;90.60;;;;;;5115719;28;20193;-89
2023/09/12 01:06:11;;;;;;;43.83;32.05;;;20.10;90.60;;;;;;5116215;28;20722;-89
2023/09/12 01:08:38;;;;;;;39.40;30.92;;;20.20;90.50;;;;;;5116794;28;20598;-89
2023/09/12 01:11:04;;;;;;;46.13;31.73;;;20.20;90.40;;;;;;5116670;28;20674;-89
2023/09/12 01:13:29;;;;;;;40.83;31.55;;;20.10;90.30;;;;;;5115433;28;20198;-89
2023/09/12 01:15:55;;;;;;;51.70;33.47;;;20.00;90.20;;;;;;5116617;28;20194;-89
2023/09/12 01:18:20;;;;;;;47.33;34.28;;;20.00;90.40;;;;;;5115335;28;20201;-89
2023/09/12 01:21:25;;;;;;;42.35;33.22;;;19.90;90.50;;;;;;5115331;28;20170;-89
2023/09/12 01:24:02;;;;;;;46.60;32.78;;;20.00;90.70;;;;;;5092230;28;20395;-89
2023/09/12 01:26:33;;;;;;;49.80;32.25;;;20.10;90.60;;;;;;5116637;28;20708;-89
2023/09/12 01:29:00;;;;;;;45.47;31.70;;;20.00;90.50;;;;;;5115181;28;20174;-89
2023/09/12 01:31:27;;;;;;;49.25;32.40;;;20.00;90.50;;;;;;5116491;28;20245;-89
2023/09/12 01:34:09;;;;;;;40.17;32.05;;;20.10;90.60;;;;;;5114954;28;20229;-89
2023/09/12 01:36:34;;;;;;;44.42;31.83;;;20.10;90.50;;;;;;5116219;28;20225;-90
2023/09/12 01:39:00;;;;;;;44.63;32.22;;;20.10;90.40;;;;;;5116119;28;20178;-90
2023/09/12 01:41:27;;;;;;;47.00;34.00;;;20.10;90.20;;;;;;5114903;28;20213;-90
2023/09/12 01:43:54;;;;;;;49.85;34.13;;;19.80;90.50;;;;;;5114850;28;20185;-90
2023/09/12 01:46:21;;;;;;;43.40;34.10;;;19.80;91.00;;;;;;5114973;28;20177;-90
2023/09/12 01:48:51;;;;;;;43.75;34.13;;;19.70;91.20;;;;;;5114932;28;20174;-90
2023/09/12 01:51:18;;;;;;;45.03;34.42;;;19.80;91.20;;;;;;5115941;28;20256;-90
2023/09/12 01:53:45;;;;;;;44.75;33.63;;;19.80;91.20;;;;;;5114649;28;20197;-90
2023/09/12 01:56:13;;;;;;;43.47;33.70;;;19.90;91.30;;;;;;5114622;28;20210;-90
2023/09/12 01:58:38;;;;;;;46.00;33.33;;;19.90;91.20;;;;;;5115054;28;20201;-90
2023/09/12 02:01:04;;;;;;;46.17;33.42;;;19.90;91.10;;;;;;5115748;28;20641;-90
2023/09/12 02:03:29;;;;;;;43.72;34.92;;;19.90;91.10;;;;;;5114527;28;20272;-90
2023/09/12 02:05:55;;;;;;;43.85;32.58;;;19.90;91.00;;;;;;5115761;28;20174;-90
2023/09/12 02:08:21;;;;;;;43.40;32.40;;;19.90;90.80;;;;;;5114427;28;20220;-90
2023/09/12 02:10:46;;;;;;;41.53;33.22;;;19.90;90.80;;;;;;5114503;28;20205;-90
2023/09/12 02:13:12;;;;;;;47.20;32.60;;;19.80;90.70;;;;;;5114157;28;20218;-89
2023/09/12 02:15:37;;;;;;;43.38;32.33;;;19.80;90.90;;;;;;5114264;28;20335;-90
2023/09/12 02:18:03;;;;;;;41.17;31.98;;;19.90;90.80;;;;;;5115464;28;20170;-90
2023/09/12 02:20:28;;;;;;;45.53;31.83;;;19.90;90.70;;;;;;5114749;28;20637;-90
2023/09/12 02:22:54;;;;;;;41.63;34.05;;;19.90;90.60;;;;;;5114199;28;20655;-90
2023/09/12 02:25:19;;;;;;;48.28;35.33;;;19.80;90.50;;;;;;5115501;28;20166;-90
2023/09/12 02:27:45;;;;;;;49.17;36.75;;;19.80;90.40;;;;;;5115479;28;20162;-90
2023/09/12 02:30:10;;;;;;;56.65;37.28;;;19.80;90.50;;;;;;5113991;28;20174;-90
2023/09/12 02:32:36;;;;;;;63.20;41.20;;;19.80;90.80;;;;;;5113943;28;20173;-90
2023/09/12 02:35:02;;;;;;;54.47;38.75;;;19.70;91.00;;;;;;5113688;28;20277;-90
2023/09/12 02:37:28;;;;;;;55.17;37.92;;;19.70;91.30;;;;;;5113817;28;20175;-89
2023/09/12 02:39:53;;;;;;;53.72;38.00;;;19.80;91.40;;;;;;5113898;28;20244;-90
2023/09/12 02:42:19;;;;;;;62.88;39.00;;;19.80;91.30;;;;;;5113776;28;20522;-90
2023/09/12 02:44:44;;;;;;;54.45;37.30;;;19.80;91.50;;;;;;5113939;28;20198;-90
2023/09/12 02:47:10;;;;;;;58.75;40.50;;;19.70;91.60;;;;;;5113617;28;20263;-90
2023/09/12 02:49:35;;;;;;;68.18;44.15;;;19.80;91.60;;;;;;5114941;28;20597;-89
2023/09/12 02:52:01;;;;;;;62.70;46.33;;;19.70;91.90;;;;;;5113655;28;20170;-89
2023/09/12 02:54:26;;;;;;;70.45;47.75;;;19.70;91.90;;;;;;5114668;28;20547;-89
2023/09/12 02:56:52;;;;;;;65.00;44.00;;;19.70;92.20;;;;;;5114340;28;20577;-89
2023/09/12 02:59:19;;;;;;;71.32;46.75;;;19.70;92.40;;;;;;5112860;28;20174;-89
2023/09/12 03:01:44;;;;;;;70.05;50.35;;;19.60;92.60;;;;;;5112821;28;20709;-89
2023/09/12 03:04:10;;;;;;;73.20;49.45;;;19.60;92.70;;;;;;5112650;28;20190;-89
2023/09/12 03:06:35;;;;;;;67.32;45.40;;;19.60;92.80;;;;;;5112972;28;20174;-90
2023/09/12 03:09:01;;;;;;;67.78;46.90;;;19.50;92.80;;;;;;5113163;28;20209;-89
2023/09/12 03:11:30;;;;;;;73.15;47.00;;;19.60;92.90;;;;;;5113072;28;20223;-89
2023/09/12 03:13:55;;;;;;;76.53;47.83;;;19.60;92.90;;;;;;5113035;28;20248;-89
2023/09/12 03:16:23;;;;;;;69.18;47.45;;;19.60;92.90;;;;;;5113008;28;20202;-89
2023/09/12 03:18:48;;;;;;;66.70;45.80;;;19.60;92.90;;;;;;5114405;28;20561;-89
2023/09/12 03:21:14;;;;;;;71.95;48.17;;;19.50;92.90;;;;;;5114554;28;20162;-90
2023/09/12 03:23:39;;;;;;;86.72;49.38;;;19.50;92.90;;;;;;5114171;28;20189;-90
2023/09/12 03:26:06;;;;;;;73.32;47.78;;;19.50;93.00;;;;;;5114382;28;20166;-89
2023/09/12 03:28:32;;;;;;;71.35;46.63;;;19.60;93.10;;;;;;5112933;28;20178;-90
2023/09/12 03:31:12;;;;;;;76.82;48.13;;;19.60;93.00;;;;;;5114033;28;20178;-91
2023/09/12 03:33:38;;;;;;;70.63;46.58;;;19.60;93.00;;;;;;5113054;28;20193;-90
2023/09/12 03:36:04;;;;;;;70.68;45.97;;;19.60;93.00;;;;;;5113504;28;20250;-91
2023/09/12 03:38:30;;;;;;;73.20;45.78;;;19.70;93.10;;;;;;5113504;28;20174;-91
2023/09/12 03:40:55;;;;;;;63.53;45.70;;;19.70;93.00;;;;;;5113073;28;20177;-91
2023/09/12 03:43:21;;;;;;;63.88;42.75;;;19.80;93.00;;;;;;5112932;28;20285;-91
2023/09/12 03:45:46;;;;;;;59.22;42.65;;;19.70;92.90;;;;;;5113492;28;20176;-90
2023/09/12 03:48:12;;;;;;;58.95;41.03;;;19.80;92.80;;;;;;5112765;28;20178;-91
2023/09/12 03:50:37;;;;;;;57.70;43.67;;;19.70;92.80;;;;;;5112774;28;20675;-90
2023/09/12 03:53:03;;;;;;;74.43;47.58;;;19.50;92.60;;;;;;5112785;28;20182;-91
2023/09/12 03:55:28;;;;;;;63.95;48.00;;;19.40;92.80;;;;;;5112746;28;20212;-91
2023/09/12 03:57:54;;;;;;;73.10;48.40;;;19.30;93.00;;;;;;5112710;28;20217;-91
2023/09/12 04:00:19;;;;;;;70.72;47.95;;;19.30;93.10;;;;;;5112800;28;20181;-91
2023/09/12 04:02:45;;;;;;;72.85;47.95;;;19.20;93.20;;;;;;5112621;28;20591;-91
2023/09/12 04:05:10;;;;;;;69.70;48.45;;;19.20;93.30;;;;;;5113802;28;20196;-90
2023/09/12 04:07:36;;;;;;;78.38;49.25;;;19.10;93.40;;;;;;5112555;28;20178;-90
2023/09/12 04:10:02;;;;;;;71.75;50.05;;;19.10;93.60;;;;;;5113765;28;20174;-91
2023/09/12 04:12:27;;;;;;;70.85;48.33;;;19.10;93.70;;;;;;5113003;28;20174;-91
2023/09/12 04:14:54;;;;;;;69.47;45.95;;;19.10;93.60;;;;;;5112477;28;20282;-91
2023/09/12 04:17:20;;;;;;;75.03;48.55;;;19.10;93.70;;;;;;5115196;28;20173;-91
2023/09/12 04:19:45;;;;;;;70.07;47.15;;;19.10;93.70;;;;;;5117858;28;20166;-90
2023/09/12 04:22:11;;;;;;;70.30;45.83;;;19.20;93.70;;;;;;5116976;28;20166;-90
2023/09/12 04:24:37;;;;;;;61.65;41.25;;;19.20;93.70;;;;;;5118265;28;20273;-91
2023/09/12 04:27:03;;;;;;;56.53;41.75;;;19.20;93.70;;;;;;5117827;28;20177;-90
2023/09/12 04:29:29;;;;;;;61.15;44.95;;;19.30;93.70;;;;;;5116455;28;20268;-91
2023/09/12 04:31:59;;;;;;;59.17;43.60;;;19.20;93.50;;;;;;5116711;28;20197;-90
2023/09/12 04:34:25;;;;;;;72.38;47.42;;;19.20;93.50;;;;;;5116388;28;20194;-91
2023/09/12 04:36:51;;;;;;;69.60;48.72;;;19.10;93.50;;;;;;5116460;28;20216;-91
2023/09/12 04:39:17;;;;;;;81.85;50.08;;;19.20;93.60;;;;;;5116306;28;20668;-91
2023/09/12 04:41:42;;;;;;;71.55;48.70;;;19.30;93.70;;;;;;5116250;28;20170;-92
2023/09/12 04:44:08;;;;;;;77.28;49.58;;;19.20;93.60;;;;;;5115980;28;20194;-91
2023/09/12 04:46:33;;;;;;;72.10;49.30;;;19.20;93.60;;;;;;5116101;28;20185;-91
2023/09/12 04:48:59;;;;;;;84.93;52.05;;;19.20;93.70;;;;;;5116423;28;20178;-90
2023/09/12 04:51:26;;;;;;;65.32;46.97;;;19.20;93.70;;;;;;5116070;28;20180;-91
2023/09/12 04:53:52;;;;;;;74.32;48.72;;;19.20;93.70;;;;;;5115815;28;20217;-91
2023/09/12 04:56:17;;;;;;;74.93;51.50;;;19.10;93.70;;;;;;5115701;28;20782;-91
2023/09/12 04:58:43;;;;;;;76.85;50.47;;;19.10;93.70;;;;;;5115841;28;20243;-91
2023/09/12 05:01:09;;;;;;;72.95;49.53;;;19.00;93.80;;;;;;5115825;28;20583;-91
2023/09/12 05:03:35;;;;;;;78.97;50.85;;;19.00;93.90;;;;;;5115945;28;20660;-92
2023/09/12 05:06:01;;;;;;;77.32;50.13;;;19.00;93.90;;;;;;5116994;28;20205;-91
2023/09/12 05:08:27;;;;;;;81.65;51.03;;;19.00;94.00;;;;;;5116796;28;20594;-90
2023/09/12 05:10:52;;;;;;;78.28;52.03;;;19.00;94.10;;;;;;5115815;28;20216;-90
2023/09/12 05:13:18;;;;;;;74.47;50.65;;;19.00;94.20;;;;;;5115715;28;20733;-91
2023/09/12 05:15:44;;;;;;;81.72;51.90;;;19.20;94.20;;;;;;5115510;28;20202;-91
2023/09/12 05:18:10;;;;;;;75.40;46.83;;;19.20;94.10;;;;;;5115435;28;20193;-91
2023/09/12 05:20:36;;;;;;;72.47;48.38;;;19.20;94.20;;;;;;5115397;28;20170;-91
2023/09/12 05:23:01;;;;;;;67.03;46.10;;;19.20;94.20;;;;;;5115673;28;20223;-91
2023/09/12 05:25:27;;;;;;;64.78;43.42;;;19.20;94.10;;;;;;5115283;28;20219;-91
2023/09/12 05:27:53;;;;;;;60.92;43.88;;;19.20;94.00;;;;;;5114708;28;20174;-91
2023/09/12 05:30:18;;;;;;;70.35;45.08;;;19.20;94.00;;;;;;5116497;28;20170;-91
2023/09/12 05:32:44;;;;;;;65.07;44.22;;;19.20;94.00;;;;;;5115026;28;20178;-91
2023/09/12 05:35:10;;;;;;;68.00;45.50;;;19.20;94.00;;;;;;5115122;28;20197;-91
2023/09/12 05:37:35;;;;;;;65.50;44.88;;;19.30;93.90;;;;;;5115054;28;20181;-91
2023/09/12 05:40:01;;;;;;;68.28;47.83;;;19.20;93.70;;;;;;5115009;28;20170;-92
2023/09/12 05:42:26;;;;;;;72.32;47.00;;;19.20;93.80;;;;;;5115083;28;20178;-91
2023/09/12 05:44:56;;;;;;;69.63;47.65;;;19.20;93.80;;;;;;5115008;28;20549;-92
2023/09/12 05:47:22;;;;;;;65.22;43.38;;;19.20;93.80;;;;;;5114974;28;20174;-92
2023/09/12 05:49:47;;;;;;;70.85;47.50;;;19.20;93.90;;;;;;5115965;27;20594;-91
2023/09/12 05:52:13;;;;;;;74.32;47.85;;;19.30;93.90;;;;;;5114796;28;20177;-91
2023/09/12 05:54:40;;;;;;;75.70;48.17;;;19.20;93.90;;;;;;5114676;28;20250;-91
2023/09/12 05:57:06;;;;;;;64.07;44.58;;;19.30;93.90;;;;;;5115056;28;20186;-91
2023/09/12 05:59:32;;;;;;;67.68;46.83;;;19.30;93.80;;;;;;5115968;28;20174;-90
2023/09/12 06:01:58;;;;;;;69.55;47.47;;;19.30;93.90;;;;;;5114708;28;20584;-91
2023/09/12 06:04:24;;;;;;;66.18;45.92;;;19.40;93.90;;;;;;5114652;28;20228;-91
2023/09/12 06:06:49;;;;;;;64.88;44.40;;;19.40;93.80;;;;;;5115975;28;20202;-90
2023/09/12 06:09:15;;;;;;;70.13;46.35;;;19.40;93.90;;;;;;5114388;28;20185;-91
2023/09/12 06:11:40;;;;;;;67.97;45.40;;;19.50;93.90;;;;;;5115436;28;20338;-91
2023/09/12 06:14:06;;;;;;;61.30;46.13;;;19.60;93.90;;;;;;5114404;28;20229;-91
2023/09/12 06:16:31;;;;;;;65.95;47.45;;;19.60;93.80;;;;;;5114420;28;20213;-91
2023/09/12 06:18:57;;;;;;;74.35;48.17;;;19.60;93.80;;;;;;5114409;28;20193;-91
2023/09/12 06:21:22;;;;;;;72.28;49.63;;;19.50;93.70;;;;;;5114196;28;20656;-91
2023/09/12 06:24:07;;;;;;;73.70;48.58;;;19.50;93.70;;;;;;5114641;28;20238;-91
2023/09/12 06:26:32;;;;;;;77.32;50.05;;;19.50;93.80;;;;;;5115913;28;20624;-91
2023/09/12 06:28:58;;;;;;;80.10;50.10;;;19.50;93.70;;;;;;5114790;28;20174;-91
2023/09/12 06:31:24;;;;;;;75.10;49.33;;;19.50;93.70;;;;;;5114354;28;20170;-91
2023/09/12 06:33:50;;;;;;;74.28;49.60;;;19.50;93.80;;;;;;5115768;28;20197;-91
2023/09/12 06:36:15;;;;;;;75.40;50.42;;;19.50;93.70;;;;;;5116569;28;20198;-91
2023/09/12 06:38:40;;;;;;;74.60;50.85;;;19.50;93.80;;;;;;5115435;28;20174;-90
2023/09/12 06:41:06;;;;;;;83.72;51.63;;;19.50;93.70;;;;;;5113958;28;20262;-90
2023/09/12 06:43:31;;;;;;;83.80;52.85;;;19.50;93.80;;;;;;5115067;28;20182;-90
2023/09/12 06:45:57;;;;;;;82.10;53.08;;;19.50;93.90;;;;;;5113651;28;20649;-90
2023/09/12 06:48:22;;;;;;;85.68;56.13;;;19.50;94.00;;;;;;5113666;28;20188;-90
2023/09/12 06:50:48;;;;;;;95.07;60.53;;;19.50;94.20;;;;;;5113702;28;20180;-90
2023/09/12 06:53:13;;;;;;;105.22;58.47;;;19.50;94.30;;;;;;5113418;28;20194;-91
2023/09/12 06:55:39;;;;;;;113.55;62.35;;;19.50;94.40;;;;;;5113599;28;20213;-90
2023/09/12 06:58:05;;;;;;;102.13;59.05;;;19.40;94.50;;;;;;5114957;28;20166;-90
2023/09/12 07:00:31;;;;;;;91.72;55.13;;;19.40;94.60;;;;;;5114921;28;20177;-90
2023/09/12 07:02:56;;;;;;;88.53;54.63;;;19.40;94.60;;;;;;5113506;28;20554;-90
2023/09/12 07:05:22;;;;;;;91.40;55.40;;;19.30;94.60;;;;;;5113375;28;20174;-90
2023/09/12 07:07:47;;;;;;;95.30;54.63;;;19.30;94.60;;;;;;5113107;28;20709;-90
2023/09/12 07:10:13;;;;;;;90.78;55.55;;;19.40;94.60;;;;;;5113176;28;20166;-91
2023/09/12 07:12:38;;;;;;;95.75;55.33;;;19.40;94.60;;;;;;5113545;28;20174;-90
2023/09/12 07:15:04;;;;;;;103.60;57.50;;;19.40;94.70;;;;;;5112990;28;20565;-90
2023/09/12 07:17:30;;;;;;;104.03;59.25;;;19.50;94.70;;;;;;5113252;28;20253;-90
2023/09/12 07:19:56;;;;;;;106.60;58.38;;;19.50;94.70;;;;;;5114499;28;20314;-90
2023/09/12 07:22:21;;;;;;;98.47;57.97;;;19.60;94.70;;;;;;5113730;28;20165;-90
2023/09/12 07:24:47;;;;;;;93.32;56.00;;;19.60;94.70;;;;;;5112940;28;20190;-90
2023/09/12 07:27:12;;;;;;;94.25;55.88;;;19.60;94.60;;;;;;5113944;28;20706;-89
2023/09/12 07:29:38;;;;;;;91.45;55.58;;;19.60;94.60;;;;;;5115019;28;20201;-90
2023/09/12 07:32:04;;;;;;;96.13;56.33;;;19.60;94.60;;;;;;5114303;28;20174;-91
2023/09/12 07:34:29;;;;;;;89.25;54.17;;;19.60;94.60;;;;;;5113603;28;20197;-91
2023/09/12 07:36:55;;;;;;;89.70;53.67;;;19.70;94.60;;;;;;5113990;28;20209;-90
2023/09/12 07:39:20;;;;;;;91.55;53.03;;;19.60;94.50;;;;;;5112989;28;20580;-89
2023/09/12 07:41:46;;;;;;;84.47;53.33;;;19.60;94.40;;;;;;5113921;28;20644;-89
2023/09/12 07:44:11;;;;;;;80.32;51.33;;;19.70;94.50;;;;;;5113848;28;20196;-91
2023/09/12 07:46:40;;;;;;;85.72;52.03;;;19.70;94.50;;;;;;5113943;28;20177;-90
2023/09/12 07:49:05;;;;;;;77.03;49.08;;;19.70;94.30;;;;;;5112757;28;20676;-90
2023/09/12 07:51:31;;;;;;;86.88;51.42;;;19.80;94.30;;;;;;5112323;28;20181;-90
2023/09/12 07:53:56;;;;;;;84.70;50.15;;;19.80;94.30;;;;;;5112461;28;20205;-89
2023/09/12 07:56:22;;;;;;;77.18;49.30;;;19.80;94.20;;;;;;5112351;28;20209;-90
2023/09/12 07:58:49;;;;;;;72.57;47.17;;;20.00;94.20;;;;;;5112476;28;20173;-90
2023/09/12 08:01:14;;;;;;;71.22;46.53;;;19.90;93.70;;;;;;5112726;28;20645;-89
2023/09/12 08:03:42;;;;;;;68.93;45.67;;;19.90;93.80;;;;;;5113841;28;20189;-89
2023/09/12 08:06:08;;;;;;;70.25;46.03;;;20.10;93.80;;;;;;5113896;28;20174;-90
2023/09/12 08:08:34;;;;;;;67.25;45.83;;;20.30;93.80;;;;;;5112522;28;20554;-89
2023/09/12 08:11:00;;;;;;;67.13;46.03;;;20.10;93.00;;;;;;5112431;28;20180;-89
2023/09/12 08:13:29;;;;;;;65.18;44.13;;;20.20;93.30;;;;;;5112480;28;20212;-89
2023/09/12 08:15:56;;;;;;;60.85;42.75;;;20.00;92.70;;;;;;5113691;28;20338;-89
2023/09/12 08:18:21;;;;;;;53.95;40.10;;;20.20;92.90;;;;;;5113587;28;20230;-89
2023/09/12 08:20:47;;;;;;;55.70;39.47;;;20.10;92.20;;;;;;5112644;28;20170;-89
2023/09/12 08:23:12;;;;;;;51.53;38.60;;;20.20;92.20;;;;;;5113733;28;20228;-88
2023/09/12 08:25:39;;;;;;;61.00;42.25;;;20.30;92.00;;;;;;5112387;28;20174;-88
2023/09/12 08:28:05;;;;;;;51.47;40.33;;;20.40;92.00;;;;;;5113602;28;20224;-88
2023/09/12 08:30:31;;;;;;;51.30;38.13;;;20.60;92.00;;;;;;5113562;28;20564;-88
2023/09/12 08:32:56;;;;;;;56.60;37.88;;;20.50;91.40;;;;;;5112201;28;20178;-88
2023/09/12 08:35:22;;;;;;;55.72;40.33;;;20.50;91.00;;;;;;5112057;28;20198;-88
2023/09/12 08:37:47;;;;;;;52.38;39.60;;;20.60;90.90;;;;;;5112047;28;20174;-88
2023/09/12 08:40:13;;;;;;;50.03;39.72;;;20.70;90.20;;;;;;5113389;28;20251;-88
2023/09/12 08:42:41;;;;;;;50.72;38.63;;;20.60;90.20;;;;;;5113698;28;20660;-88
2023/09/12 08:45:18;;;;;;;52.58;37.65;;;20.70;90.70;;;;;;5113266;28;20690;-88
2023/09/12 08:47:45;;;;;;;46.75;39.88;;;20.70;90.40;;;;;;5113274;28;20560;-88
2023/09/12 08:50:14;;;;;;;48.28;39.35;;;20.70;90.40;;;;;;5113573;28;20174;-88
2023/09/12 08:52:41;;;;;;;44.35;36.90;;;20.70;90.20;;;;;;5112028;28;20654;-89
2023/09/12 08:55:07;;;;;;;44.83;37.08;;;20.90;90.30;;;;;;5112968;28;20300;-88
2023/09/12 08:57:35;;;;;;;50.30;34.85;;;21.00;89.60;;;;;;5111929;28;20232;-88
2023/09/12 09:00:20;;;;;;;51.50;34.72;;;21.00;89.80;;;;;;5111832;28;20641;-88
2023/09/12 09:02:46;;;;;;;43.20;32.88;;;20.90;89.20;;;;;;5112494;28;20546;-89
2023/09/12 09:05:13;;;;;;;39.22;32.03;;;20.80;88.60;;;;;;5116719;28;20190;-88
2023/09/12 09:07:40;;;;;;;42.70;31.85;;;21.20;89.40;;;;;;5116882;28;20547;-89
2023/09/12 09:10:08;;;;;;;36.78;28.95;;;21.30;89.10;;;;;;5115650;28;20162;-89
2023/09/12 09:12:34;;;;;;;38.33;32.40;;;21.30;88.10;;;;;;5117133;28;20178;-88
2023/09/12 09:15:27;;;;;;;39.30;30.90;;;21.20;87.90;;;;;;5115308;28;20197;-89
2023/09/12 09:17:54;;;;;;;33.60;29.30;;;21.40;87.90;;;;;;5115638;28;20720;-88
2023/09/12 09:20:34;;;;;;;37.05;29.88;;;21.30;87.00;;;;;;5116104;28;20170;-88
2023/09/12 09:23:05;;;;;;;34.67;29.08;;;21.30;86.80;;;;;;5115296;28;20158;-88
2023/09/12 09:25:34;;;;;;;34.45;29.35;;;21.50;86.90;;;;;;5116784;28;20237;-87
2023/09/12 09:28:03;;;;;;;33.05;29.48;;;21.20;86.30;;;;;;5115138;28;20181;-88
2023/09/12 09:30:46;;;;;;;33.90;30.15;;;21.50;87.40;;;;;;5116337;28;20174;-88
2023/09/12 09:33:13;;;;;;;36.38;30.00;;;21.70;86.60;;;;;;5116252;28;20278;-89
2023/09/12 09:35:41;;;;;;;32.30;28.50;;;21.70;86.60;;;;;;5115304;28;20692;-89
2023/09/12 09:38:08;;;;;;;35.42;30.55;;;21.70;86.30;;;;;;5116595;28;20176;-89
2023/09/12 09:40:34;;;;;;;30.85;27.65;;;21.80;86.10;;;;;;5116162;28;20162;-90
2023/09/12 09:43:01;;;;;;;31.23;28.00;;;22.00;86.10;;;;;;5114757;28;20170;-89
2023/09/12 09:45:29;;;;;;;33.35;29.88;;;22.00;85.30;;;;;;5114847;28;20265;-89
2023/09/12 09:48:06;;;;;;;31.17;27.75;;;22.00;84.70;;;;;;5116014;28;20181;-88
2023/09/12 09:50:35;;;;;;;32.92;29.40;;;22.00;84.90;;;;;;5114681;28;20174;-88
2023/09/12 09:53:01;;;;;;;31.48;28.13;;;21.80;84.40;;;;;;5115806;28;20173;-88
2023/09/12 09:55:27;;;;;;;29.25;25.88;;;21.80;83.90;;;;;;5115743;27;20224;-88
2023/09/12 09:57:53;;;;;;;30.02;27.02;;;21.90;84.10;;;;;;5115764;28;20245;-88
2023/09/12 10:00:20;;;;;;;29.48;26.38;;;21.80;83.70;;;;;;5114607;28;20256;-88
2023/09/12 10:02:48;;;;;;;30.70;27.05;;;21.90;83.70;;;;;;5114434;28;20177;-88
2023/09/12 10:05:17;;;;;;;28.48;25.42;;;21.80;83.30;;;;;;5115959;28;20173;-87
2023/09/12 10:07:45;;;;;;;30.33;27.30;;;21.80;83.60;;;;;;5115715;28;20541;-88
2023/09/12 10:10:11;;;;;;;28.73;25.92;;;21.80;83.10;;;;;;5114427;28;20250;-87
2023/09/12 10:12:41;;;;;;;31.85;28.55;;;21.80;83.90;;;;;;5114334;28;20166;-88
2023/09/12 10:15:08;;;;;;;30.63;27.02;;;22.00;83.90;;;;;;5114317;28;20271;-87
2023/09/12 10:17:37;;;;;;;33.83;30.10;;;21.90;83.70;;;;;;5114217;28;20553;-87
2023/09/12 10:20:09;;;;;;;31.48;28.23;;;21.80;83.60;;;;;;5114504;28;20174;-87
2023/09/12 10:22:43;;;;;;;32.08;28.02;;;21.80;83.30;;;;;;5115667;28;20155;-87
2023/09/12 10:25:11;;;;;;;29.45;26.50;;;21.80;84.10;;;;;;5115862;28;20752;-88
2023/09/12 10:27:37;;;;;;;33.45;29.30;;;21.60;83.80;;;;;;5114448;28;20174;-87
2023/09/12 10:30:04;;;;;;;32.03;27.73;;;21.60;83.70;;;;;;5115721;28;20656;-87
2023/09/12 10:32:31;;;;;;;30.65;27.38;;;21.70;84.10;;;;;;5115416;28;20193;-87
2023/09/12 10:34:59;;;;;;;32.03;26.70;;;21.60;83.60;;;;;;5115082;28;20598;-87
2023/09/12 10:37:26;;;;;;;30.30;25.77;;;21.70;84.20;;;;;;5113753;28;20579;-87
2023/09/12 10:39:56;;;;;;;32.60;24.48;;;21.80;84.40;;;;;;5115375;28;20162;-87
2023/09/12 10:42:23;;;;;;;30.15;24.98;;;21.90;83.70;;;;;;5115024;28;20176;-88
2023/09/12 10:44:51;;;;;;;29.35;24.08;;;22.00;82.80;;;;;;5113725;28;20673;-88
2023/09/12 10:47:18;;;;;;;27.83;25.00;;;22.00;83.00;;;;;;5115098;28;20201;-87
2023/09/12 10:49:44;;;;;;;28.60;25.55;;;22.00;83.20;;;;;;5113754;28;20683;-88
2023/09/12 10:52:10;;;;;;;28.30;25.08;;;22.00;83.50;;;;;;5114849;28;20176;-89
2023/09/12 10:54:40;;;;;;;31.15;25.58;;;21.90;83.50;;;;;;5114567;28;20182;-88
2023/09/12 10:57:13;;;;;;;27.35;24.23;;;21.80;83.60;;;;;;5113418;28;20584;-89
2023/09/12 11:00:01;;;;;;;27.20;24.40;;;21.70;83.60;;;;;;5113428;28;20542;-88
2023/09/12 11:02:34;;;;;;;25.35;22.92;;;21.70;83.70;;;;;;5113328;28;20162;-89
2023/09/12 11:05:27;;;;;;;24.23;21.50;;;21.80;83.60;;;;;;5113352;28;20626;-89
2023/09/12 11:08:00;;;;;;;24.90;22.13;;;21.70;83.70;;;;;;5110189;28;20182;-89
2023/09/12 11:10:27;;;;;;;23.08;20.95;;;21.70;83.80;;;;;;5114423;28;20193;-89
2023/09/12 11:12:57;;;;;;;22.75;20.52;;;21.70;83.10;;;;;;5113065;28;20170;-88
2023/09/12 11:15:25;;;;;;;22.25;20.10;;;21.70;83.10;;;;;;5112958;28;20174;-88
2023/09/12 11:18:04;;;;;;;21.90;19.80;;;21.70;82.90;;;;;;5114458;28;20166;-89
2023/09/12 11:20:51;;;;;;;21.67;19.77;;;21.60;82.70;;;;;;5113311;28;20181;-88
2023/09/12 11:23:17;;;;;;;20.02;18.13;;;21.50;82.30;;;;;;5113114;28;20190;-88
2023/09/12 11:25:43;;;;;;;21.70;19.67;;;21.60;82.50;;;;;;5112524;28;20247;-88
2023/09/12 11:28:09;;;;;;;21.38;19.48;;;21.60;82.20;;;;;;5112927;28;20178;-89
2023/09/12 11:30:34;;;;;;;21.15;19.08;;;21.60;82.10;;;;;;5112880;28;20170;-88
2023/09/12 11:33:05;;;;;;;23.05;20.48;;;21.70;82.60;;;;;;5113977;28;20170;-89
2023/09/12 11:35:36;;;;;;;21.42;19.15;;;21.70;82.70;;;;;;5113373;28;20242;-88
2023/09/12 11:38:02;;;;;;;22.35;20.10;;;21.70;82.60;;;;;;5112927;28;20189;-89
2023/09/12 11:40:34;;;;;;;21.77;19.38;;;21.80;82.20;;;;;;5113198;28;20644;-89
2023/09/12 11:43:00;;;;;;;20.27;18.40;;;21.90;82.80;;;;;;5114140;28;20178;-89
2023/09/12 11:45:27;;;;;;;21.23;19.15;;;21.90;82.60;;;;;;5113838;28;20177;-89
2023/09/12 11:47:53;;;;;;;22.60;19.38;;;22.00;82.70;;;;;;5112666;28;20217;-89
2023/09/12 11:50:29;;;;;;;23.10;20.33;;;21.80;82.20;;;;;;5113897;28;20703;-87
2023/09/12 11:53:11;;;;;;;23.08;20.88;;;22.00;82.50;;;;;;5113640;28;20675;-88
2023/09/12 11:55:43;;;;;;;21.55;19.55;;;21.90;82.00;;;;;;5113737;28;20557;-89
2023/09/12 11:58:10;;;;;;;24.25;21.55;;;21.90;82.30;;;;;;5112712;28;20589;-87
2023/09/12 12:00:35;;;;;;;22.75;19.50;;;21.80;82.30;;;;;;5112546;28;20705;-88
2023/09/12 12:03:01;;;;;;;23.63;21.17;;;21.90;82.40;;;;;;5112588;28;20174;-88
2023/09/12 12:05:26;;;;;;;25.67;21.83;;;21.90;82.30;;;;;;5113751;28;20184;-89
2023/09/12 12:07:52;;;;;;;21.13;19.13;;;21.90;81.90;;;;;;5113677;28;20180;-89
2023/09/12 12:10:18;;;;;;;28.77;26.42;;;22.00;82.50;;;;;;5113901;28;20200;-89
2023/09/12 12:12:46;;;;;;;33.70;30.33;;;21.90;81.60;;;;;;5112409;28;20181;-90
2023/09/12 12:15:12;;;;;;;32.63;30.05;;;21.90;81.00;;;;;;5112582;28;20193;-90
2023/09/12 12:17:40;;;;;;;23.40;21.08;;;21.90;80.00;;;;;;5112355;28;20177;-89
2023/09/12 12:20:10;;;;;;;23.33;21.13;;;21.90;80.30;;;;;;5113666;28;20166;-89
2023/09/12 12:22:38;;;;;;;30.95;28.40;;;21.80;80.10;;;;;;5112497;28;20170;-89
2023/09/12 12:25:09;;;;;;;32.13;29.20;;;21.80;80.70;;;;;;5113461;28;20194;-89